createdAt,value
2022-10-20T00:02:20.880Z,3.03
2022-10-20T00:05:23.669Z,2.47
2022-10-20T00:08:26.152Z,3.03
2022-10-20T00:11:30.006Z,1.52
2022-10-20T00:14:32.435Z,1.50
2022-10-20T00:17:35.109Z,1.77
2022-10-20T00:20:40.099Z,1.40
2022-10-20T00:23:43.180Z,1.35
2022-10-20T00:26:48.168Z,1.48
2022-10-20T00:29:50.891Z,2.83
2022-10-20T00:32:53.843Z,1.65
2022-10-20T00:35:59.956Z,2.08
2022-10-20T00:39:04.565Z,1.95
2022-10-20T00:42:07.442Z,2.78
2022-10-20T00:45:18.535Z,1.40
2022-10-20T00:48:23.975Z,2.28
2022-10-20T00:51:29.840Z,1.65
2022-10-20T00:54:32.601Z,1.92
2022-10-20T00:57:36.256Z,1.42
2022-10-20T01:00:42.884Z,2.70
2022-10-20T01:03:51.606Z,1.95
2022-10-20T01:09:57.039Z,0.82
2022-10-20T01:13:10.651Z,1.62
2022-10-20T01:16:21.993Z,0.90
2022-10-20T01:19:40.003Z,2.47
2022-10-20T01:22:57.620Z,2.20
2022-10-20T01:26:29.715Z,3.10
2022-10-20T01:30:06.397Z,4.22
2022-10-20T01:33:23.577Z,1.33
2022-10-20T01:36:41.036Z,1.33
2022-10-20T01:39:54.131Z,2.05
2022-10-20T01:43:01.659Z,1.83
2022-10-20T01:46:07.963Z,3.47
2022-10-20T01:49:12.832Z,1.23
2022-10-20T01:52:15.992Z,3.00
2022-10-20T01:55:18.651Z,2.20
2022-10-20T01:58:34.344Z,2.85
2022-10-20T02:02:34.768Z,3.42
2022-10-20T02:05:43.571Z,2.08
2022-10-20T02:12:07.852Z,2.22
2022-10-20T02:15:14.920Z,5.07
2022-10-20T02:18:22.215Z,2.00
2022-10-20T02:21:25.230Z,1.50
2022-10-20T02:24:34.108Z,2.08
2022-10-20T02:30:43.605Z,2.60
2022-10-20T02:33:47.034Z,1.65
2022-10-20T02:36:49.789Z,4.60
2022-10-20T02:39:52.319Z,1.65
2022-10-20T02:42:55.017Z,1.25
2022-10-20T02:45:57.479Z,1.80
2022-10-20T02:49:00.199Z,1.50
2022-10-20T02:52:02.688Z,1.55
2022-10-20T02:55:06.511Z,1.50
2022-10-20T02:58:09.501Z,1.17
2022-10-20T03:01:12.499Z,1.20
2022-10-20T03:04:15.329Z,2.12
2022-10-20T03:07:18.039Z,1.62
2022-10-20T03:10:24.877Z,4.55
2022-10-20T03:13:27.581Z,3.17
2022-10-20T03:16:30.060Z,2.25
2022-10-20T03:19:32.735Z,1.90
2022-10-20T03:22:35.192Z,1.58
2022-10-20T03:25:37.865Z,1.90
2022-10-20T03:28:40.783Z,1.55
2022-10-20T03:31:43.592Z,1.90
2022-10-20T03:34:46.076Z,1.37
2022-10-20T03:37:48.808Z,2.03
2022-10-20T03:40:52.532Z,3.78
2022-10-20T03:43:55.300Z,1.73
2022-10-20T03:46:57.974Z,1.70
2022-10-20T03:50:01.018Z,2.12
2022-10-20T03:53:03.566Z,2.45
2022-10-20T03:56:08.082Z,3.15
2022-10-20T03:59:11.372Z,1.77
2022-10-20T04:02:27.426Z,1.37
2022-10-20T04:05:30.098Z,2.12
2022-10-20T04:08:32.567Z,2.47
2022-10-20T04:11:35.286Z,3.00
2022-10-20T04:14:37.635Z,2.22
2022-10-20T04:20:48.636Z,1.42
2022-10-20T04:23:51.314Z,1.27
2022-10-20T04:26:53.699Z,2.10
2022-10-20T04:29:56.410Z,1.35
2022-10-20T04:32:58.964Z,5.32
2022-10-20T04:36:04.987Z,1.73
2022-10-20T04:39:08.362Z,2.83
2022-10-20T04:42:11.008Z,2.87
2022-10-20T04:45:13.492Z,8.95
2022-10-20T04:48:16.658Z,2.17
2022-10-20T04:51:19.807Z,2.37
2022-10-20T04:54:22.574Z,5.47
2022-10-20T04:57:25.129Z,1.92
2022-10-20T05:00:30.156Z,6.10
2022-10-20T05:03:33.170Z,2.08
2022-10-20T05:06:35.871Z,13.32
2022-10-20T05:09:38.290Z,3.37
2022-10-20T05:12:41.037Z,2.55
2022-10-20T05:15:43.470Z,2.47
2022-10-20T05:18:48.573Z,12.25
2022-10-20T05:21:51.216Z,2.05
2022-10-20T05:24:53.931Z,2.97
2022-10-20T05:27:57.725Z,2.08
2022-10-20T05:31:08.963Z,2.28
2022-10-20T05:34:13.479Z,4.57
2022-10-20T05:37:16.228Z,3.78
2022-10-20T05:40:20.692Z,5.22
2022-10-20T05:43:25.605Z,4.53
2022-10-20T05:46:30.866Z,1.92
2022-10-20T05:49:33.613Z,2.75
2022-10-20T05:52:36.708Z,6.95
2022-10-20T05:55:39.633Z,6.32
2022-10-20T05:58:43.463Z,4.12
2022-10-20T06:01:49.133Z,3.20
2022-10-20T06:04:52.015Z,5.45
2022-10-20T06:07:54.817Z,4.75
2022-10-20T06:11:05.328Z,14.20
2022-10-20T06:17:13.838Z,6.22
2022-10-20T06:20:23.406Z,3.65
2022-10-20T06:23:26.186Z,3.03
2022-10-20T06:26:30.052Z,4.07
2022-10-20T06:29:32.848Z,3.75
2022-10-20T06:32:35.413Z,3.72
2022-10-20T06:35:38.435Z,6.15
2022-10-20T06:38:43.124Z,3.33
2022-10-20T06:41:51.396Z,5.90
2022-10-20T06:44:55.245Z,5.78
2022-10-20T06:47:57.946Z,10.38
2022-10-20T06:51:06.070Z,7.72
2022-10-20T06:54:09.463Z,6.22
2022-10-20T06:57:11.931Z,7.53
2022-10-20T07:00:15.035Z,3.40
2022-10-20T07:03:17.651Z,10.63
2022-10-20T07:06:25.219Z,8.93
2022-10-20T07:09:27.669Z,8.80
2022-10-20T07:12:30.650Z,4.40
2022-10-20T07:15:33.287Z,6.40
2022-10-20T07:18:37.628Z,6.37
2022-10-20T07:21:41.762Z,6.62
2022-10-20T07:24:47.102Z,7.25
2022-10-20T07:27:49.564Z,5.65
2022-10-20T07:30:54.985Z,6.95
2022-10-20T07:34:13.050Z,6.05
2022-10-20T07:37:22.807Z,10.15
2022-10-20T07:40:28.202Z,8.07
2022-10-20T07:43:30.941Z,7.47
2022-10-20T07:46:33.305Z,7.05
2022-10-20T07:49:43.853Z,7.55
2022-10-20T07:52:52.199Z,9.43
2022-10-20T07:55:54.937Z,8.45
2022-10-20T07:58:57.882Z,7.32
2022-10-20T08:02:01.016Z,6.87
2022-10-20T08:05:04.347Z,4.28
2022-10-20T08:08:06.864Z,3.80
2022-10-20T08:11:11.140Z,4.45
2022-10-20T08:14:17.124Z,6.20
2022-10-20T08:17:19.839Z,3.85
2022-10-20T08:20:27.214Z,5.37
2022-10-20T08:23:30.137Z,5.90
2022-10-20T08:26:32.646Z,3.65
2022-10-20T08:29:36.673Z,4.82
2022-10-20T08:32:39.306Z,4.15
2022-10-20T08:35:42.230Z,3.55
2022-10-20T08:38:44.775Z,6.05
2022-10-20T08:45:19.565Z,3.55
2022-10-20T08:48:26.364Z,5.00
2022-10-20T08:51:33.499Z,4.80
2022-10-20T08:54:36.198Z,6.20
2022-10-20T08:57:38.789Z,4.97
2022-10-20T09:00:44.363Z,3.22
2022-10-20T09:03:51.562Z,4.50
2022-10-20T09:07:00.430Z,4.47
2022-10-20T09:10:24.753Z,4.10
2022-10-20T09:13:30.652Z,3.80
2022-10-20T09:16:59.079Z,3.78
2022-10-20T09:20:04.291Z,4.95
2022-10-20T09:23:35.534Z,4.05
2022-10-20T09:26:57.954Z,5.37
2022-10-20T09:30:14.532Z,4.20
2022-10-20T09:33:28.316Z,4.78
2022-10-20T09:36:35.340Z,3.95
2022-10-20T09:39:50.165Z,5.40
2022-10-20T09:43:09.743Z,4.20
2022-10-20T09:46:12.748Z,4.90
2022-10-20T09:49:34.024Z,4.87
2022-10-20T09:52:47.713Z,5.15
2022-10-20T09:55:51.635Z,4.80
2022-10-20T09:58:56.622Z,4.37
2022-10-20T10:02:02.740Z,4.30
2022-10-20T10:05:20.331Z,4.90
2022-10-20T10:08:25.517Z,4.23
2022-10-20T10:11:35.448Z,4.28
2022-10-20T10:14:48.500Z,5.90
2022-10-20T10:17:51.606Z,4.90
2022-10-20T10:21:01.111Z,5.25
2022-10-20T10:24:04.949Z,4.35
2022-10-20T10:27:21.607Z,4.15
2022-10-20T10:30:40.780Z,4.95
2022-10-20T10:33:43.307Z,4.83
2022-10-20T10:36:46.099Z,5.18
2022-10-20T10:39:48.835Z,4.32
2022-10-20T10:43:30.076Z,5.18
2022-10-20T10:46:51.045Z,4.07
2022-10-20T10:49:56.566Z,4.32
2022-10-20T10:53:14.785Z,4.00
2022-10-20T10:56:40.636Z,5.70
2022-10-20T10:59:45.208Z,4.53
2022-10-20T11:02:58.942Z,4.40
2022-10-20T11:06:32.973Z,4.95
2022-10-20T11:09:54.243Z,4.53
2022-10-20T11:13:35.215Z,3.35
2022-10-20T11:16:50.923Z,4.15
2022-10-20T11:20:17.034Z,4.87
2022-10-20T11:23:56.947Z,4.87
2022-10-20T11:27:33.196Z,4.20
2022-10-20T11:30:41.809Z,3.60
2022-10-20T11:33:49.812Z,4.20
2022-10-20T11:40:41.043Z,5.20
2022-10-20T11:43:57.548Z,4.47
2022-10-20T11:47:22.797Z,4.25
2022-10-20T11:50:29.513Z,5.18
2022-10-20T11:53:40.845Z,3.20
2022-10-20T11:56:52.622Z,2.92
2022-10-20T12:00:01.208Z,4.20
2022-10-20T12:03:32.186Z,3.45
2022-10-20T12:07:10.243Z,2.70
2022-10-20T12:10:43.165Z,2.60
2022-10-20T12:13:51.924Z,2.58
2022-10-20T12:16:54.441Z,2.17
2022-10-20T12:20:22.547Z,2.72
2022-10-20T12:23:43.963Z,4.53
2022-10-20T12:27:05.077Z,2.40
2022-10-20T12:30:29.642Z,2.70
2022-10-20T12:33:50.662Z,4.90
2022-10-20T12:37:07.983Z,2.67
2022-10-20T12:40:13.774Z,2.45
2022-10-20T12:43:29.876Z,2.75
2022-10-20T12:46:36.336Z,2.60
2022-10-20T12:50:11.268Z,2.70
2022-10-20T12:53:23.761Z,2.40
2022-10-20T12:56:33.838Z,2.50
2022-10-20T12:59:39.008Z,3.60
2022-10-20T13:03:00.300Z,2.70
2022-10-20T13:06:22.935Z,2.97
2022-10-20T13:09:25.617Z,2.65
2022-10-20T13:12:30.106Z,3.40
2022-10-20T13:15:35.811Z,2.65
2022-10-20T13:18:46.033Z,2.62
2022-10-20T13:21:49.939Z,2.22
2022-10-20T13:24:55.995Z,2.72
2022-10-20T13:28:14.636Z,2.45
2022-10-20T13:31:38.813Z,3.58
2022-10-20T13:34:49.839Z,2.80
2022-10-20T13:38:04.406Z,2.97
2022-10-20T13:41:36.295Z,2.50
2022-10-20T13:44:57.903Z,2.97
2022-10-20T13:48:19.083Z,3.75
2022-10-20T13:51:30.108Z,3.00
2022-10-20T13:54:37.173Z,4.50
2022-10-20T13:57:54.946Z,3.27
2022-10-20T14:01:14.427Z,3.22
2022-10-20T14:04:33.645Z,2.33
2022-10-20T14:07:41.593Z,3.70
2022-10-20T14:10:58.467Z,2.30
2022-10-20T14:14:01.829Z,2.30
2022-10-20T14:17:06.771Z,3.47
2022-10-20T14:20:21.094Z,3.72
2022-10-20T14:23:24.765Z,3.30
2022-10-20T14:26:28.684Z,2.40
2022-10-20T14:29:34.839Z,3.08
2022-10-20T14:32:40.271Z,2.50
2022-10-20T14:35:50.070Z,3.03
2022-10-20T14:38:58.649Z,3.10
2022-10-20T14:42:04.691Z,3.08
2022-10-20T14:45:07.647Z,2.22
2022-10-20T14:48:16.558Z,2.58
2022-10-20T14:51:37.108Z,3.30
2022-10-20T14:54:39.978Z,2.28
2022-10-20T14:57:45.945Z,5.87
2022-10-20T15:00:50.072Z,3.17
2022-10-20T15:04:17.287Z,2.05
2022-10-20T15:07:34.866Z,2.17
2022-10-20T15:10:39.496Z,3.20
2022-10-20T15:13:51.566Z,2.37
2022-10-20T15:16:54.042Z,1.90
2022-10-20T15:19:57.183Z,2.60
2022-10-20T15:23:11.622Z,3.00
2022-10-20T15:26:14.962Z,3.17
2022-10-20T15:29:17.643Z,2.70
2022-10-20T15:32:20.559Z,3.83
2022-10-20T15:35:24.324Z,3.37
2022-10-20T15:38:27.355Z,2.40
2022-10-20T15:41:33.296Z,2.10
2022-10-20T15:44:36.080Z,3.08
2022-10-20T15:47:38.522Z,2.17
2022-10-20T15:50:43.652Z,3.28
2022-10-20T15:53:49.475Z,2.53
2022-10-20T15:56:52.607Z,2.60
2022-10-20T15:59:55.215Z,2.60
2022-10-20T16:02:58.063Z,3.30
2022-10-20T16:06:03.015Z,2.55
2022-10-20T16:09:07.947Z,2.08
2022-10-20T16:12:12.522Z,3.58
2022-10-20T16:15:34.764Z,4.78
2022-10-20T16:18:57.286Z,2.12
2022-10-20T16:22:19.524Z,3.22
2022-10-20T16:25:42.073Z,2.40
2022-10-20T16:29:04.453Z,3.35
2022-10-20T16:32:32.755Z,3.85
2022-10-20T16:35:43.461Z,3.72
2022-10-20T16:38:46.423Z,2.17
2022-10-20T16:41:49.035Z,2.53
2022-10-20T16:44:52.255Z,2.30
2022-10-20T16:47:56.028Z,6.43
2022-10-20T16:51:00.087Z,4.20
2022-10-20T16:54:03.457Z,1.90
2022-10-20T16:57:10.820Z,2.53
2022-10-20T17:00:14.245Z,6.85
2022-10-20T17:03:20.264Z,4.22
2022-10-20T17:06:25.959Z,4.20
2022-10-20T17:09:30.289Z,4.43
2022-10-20T17:12:32.992Z,4.12
2022-10-20T17:15:36.019Z,4.95
2022-10-20T17:18:39.911Z,6.97
2022-10-20T17:21:42.997Z,3.72
2022-10-20T17:24:45.686Z,2.10
2022-10-20T17:27:48.596Z,2.70
2022-10-20T17:30:53.080Z,2.05
2022-10-20T17:33:58.446Z,2.87
2022-10-20T17:37:01.470Z,2.60
2022-10-20T17:40:04.757Z,5.82
2022-10-20T17:43:07.700Z,1.85
2022-10-20T17:46:16.270Z,2.47
2022-10-20T17:52:22.559Z,8.57
2022-10-20T17:55:25.686Z,3.83
2022-10-20T17:58:29.124Z,2.17
2022-10-20T18:01:38.228Z,4.87
2022-10-20T18:04:41.267Z,3.60
2022-10-20T18:07:44.307Z,6.18
2022-10-20T18:10:49.026Z,4.75
2022-10-20T18:13:53.299Z,3.30
2022-10-20T18:16:56.424Z,2.37
2022-10-20T18:20:00.046Z,4.32
2022-10-20T18:23:03.144Z,2.28
2022-10-20T18:26:20.197Z,4.37
2022-10-20T18:29:25.551Z,4.70
2022-10-20T18:32:28.211Z,4.72
2022-10-20T18:35:31.763Z,3.65
2022-10-20T18:38:36.493Z,3.10
2022-10-20T18:41:41.072Z,3.10
2022-10-20T18:44:44.801Z,6.25
2022-10-20T18:47:49.191Z,5.37
2022-10-20T18:50:54.448Z,9.48
2022-10-20T18:53:59.581Z,11.25
2022-10-20T18:57:02.345Z,5.18
2022-10-20T19:00:08.286Z,8.38
2022-10-20T19:03:10.949Z,6.78
2022-10-20T19:06:17.557Z,9.00
2022-10-20T19:09:21.445Z,7.62
2022-10-20T19:12:24.480Z,7.87
2022-10-20T19:15:27.607Z,6.15
2022-10-20T19:18:30.622Z,8.13
2022-10-20T19:21:34.335Z,10.20
2022-10-20T19:24:40.658Z,6.82
2022-10-20T19:27:43.383Z,7.20
2022-10-20T19:30:46.510Z,7.60
2022-10-20T19:33:52.444Z,9.07
2022-10-20T19:36:56.037Z,9.02
2022-10-20T19:39:59.164Z,8.60
2022-10-20T19:43:02.560Z,6.62
2022-10-20T19:46:07.985Z,8.98
2022-10-20T19:49:11.832Z,16.05
2022-10-20T19:52:14.515Z,10.05
2022-10-20T19:55:17.632Z,10.18
2022-10-20T19:58:21.968Z,8.23
2022-10-20T20:01:26.030Z,6.45
2022-10-20T20:04:29.640Z,10.23
2022-10-20T20:07:32.449Z,9.45
2022-10-20T20:10:36.260Z,8.50
2022-10-20T20:13:38.902Z,16.25
2022-10-20T20:19:50.785Z,9.75
2022-10-20T20:22:53.746Z,9.68
2022-10-20T20:26:00.695Z,8.73
2022-10-20T20:29:04.199Z,10.10
2022-10-20T20:32:07.366Z,8.73
2022-10-20T20:35:10.130Z,11.85
2022-10-20T20:38:12.513Z,15.05
2022-10-20T20:41:17.882Z,10.90
2022-10-20T20:44:20.440Z,7.40
2022-10-20T20:47:23.174Z,18.80
2022-10-20T20:50:25.534Z,8.38
2022-10-20T20:53:28.392Z,13.65
2022-10-20T20:56:31.099Z,14.85
2022-10-20T20:59:33.857Z,8.98
2022-10-20T21:02:36.296Z,11.32
2022-10-20T21:05:39.757Z,9.13
2022-10-20T21:08:44.277Z,14.30
2022-10-20T21:11:48.835Z,10.18
2022-10-20T21:14:51.338Z,10.82
2022-10-20T21:17:54.208Z,10.77
2022-10-20T21:20:56.644Z,12.88
2022-10-20T21:24:00.516Z,8.13
2022-10-20T21:27:03.114Z,11.35
2022-10-20T21:30:06.150Z,13.32
2022-10-20T21:33:08.548Z,8.65
2022-10-20T21:36:16.521Z,9.52
2022-10-20T21:39:19.091Z,10.37
2022-10-20T21:42:21.916Z,9.82
2022-10-20T21:45:24.430Z,16.48
2022-10-20T21:48:27.159Z,11.75
2022-10-20T21:51:33.163Z,9.77
2022-10-20T21:54:35.924Z,9.48
2022-10-20T21:57:39.074Z,18.08
2022-10-20T22:00:42.004Z,12.13
2022-10-20T22:03:46.267Z,14.32
2022-10-20T22:06:48.660Z,9.32
2022-10-20T22:09:52.839Z,8.82
2022-10-20T22:12:55.189Z,7.30
2022-10-20T22:15:57.989Z,9.48
2022-10-20T22:19:04.001Z,9.20
2022-10-20T22:22:06.706Z,11.60
2022-10-20T22:25:09.492Z,9.00
2022-10-20T22:28:12.265Z,6.78
2022-10-20T22:31:17.379Z,13.40
2022-10-20T22:34:21.188Z,10.63
2022-10-20T22:37:23.620Z,7.25
2022-10-20T22:40:26.472Z,9.10
2022-10-20T22:43:30.142Z,15.40
2022-10-20T22:46:33.237Z,7.30
2022-10-20T22:49:35.692Z,15.23
2022-10-20T22:52:38.711Z,7.20
2022-10-20T22:55:41.596Z,7.35
2022-10-20T22:58:45.186Z,9.27
2022-10-20T23:01:48.148Z,11.35
2022-10-20T23:04:50.953Z,7.93
2022-10-20T23:07:53.423Z,12.48
2022-10-20T23:10:57.801Z,5.22
2022-10-20T23:14:00.193Z,11.32
2022-10-20T23:17:02.792Z,9.32
2022-10-20T23:20:05.811Z,10.32
2022-10-20T23:23:08.449Z,12.27
2022-10-20T23:26:11.888Z,8.52
2022-10-20T23:29:14.564Z,5.93
2022-10-20T23:32:17.073Z,11.35
2022-10-20T23:35:19.685Z,11.95
2022-10-20T23:38:22.123Z,9.95
2022-10-20T23:41:24.873Z,6.57
2022-10-20T23:44:27.360Z,10.50
2022-10-20T23:47:32.175Z,9.00
2022-10-20T23:50:34.671Z,10.65
2022-10-20T23:53:37.384Z,10.27
2022-10-20T23:56:39.839Z,8.90
2022-10-20T23:59:42.594Z,9.55
